^^
Grace C. Lehan Memorial Weather Station Historical Data
Daily Summary for October 13, 2021 Units:  Both    English   Metric
Daily Weekly Monthly Yearly
  High: Low: Average:
Temperature: 71.7 °F /  22.1 °C 54.6 °F /  12.6 °C 62.3 °F /  16.8 °C
Dew Point: 63.6 °F /  17.6 °C 53.1 °F /  11.7 °C 58.9 °F /  14.9 °C
Humidity: 97% 74.6% 89%
Wind Speed: 1.7mph /  2.7km/h - 0.1mph /  0.2km/h
Wind Gust: 10mph /  16.1km/h - -
Wind- - West
Pressure: 30.03 in /  1016.8 hPa 29.91 in /  1012.8 hPa -
Precipitation: 0.00 in /  0 mm    
 
 
Tabular Data for October 13, 2021
Time Temperature Dew Point Pressure Wind Wind Speed Wind Gust Humidity Rainfall Rate (Hourly) solar
00:00 57.9 °F /  14.4 °C 55.6 °F /  13.1 °C 30.03in /  1016.8hPa Calm     92% 0.00in /  0mm 0 W/m2
00:09 57.8 °F /  14.3 °C 55.5 °F /  13.1 °C 30.03in /  1016.8hPa Calm     92% 0.00in /  0mm 0 W/m2
00:14 57.7 °F /  14.3 °C 55.4 °F /  13 °C 30.03in /  1016.8hPa Calm     92% 0.00in /  0mm 0 W/m2
00:19 57.7 °F /  14.3 °C 55.6 °F /  13.1 °C 30.03in /  1016.8hPa Calm     92.8% 0.00in /  0mm 0 W/m2
00:24 57.6 °F /  14.2 °C 55.5 °F /  13.1 °C 30.03in /  1016.8hPa Calm     92.7% 0.00in /  0mm 0 W/m2
00:29 57.6 °F /  14.2 °C 55.5 °F /  13.1 °C 30.03in /  1016.8hPa Calm     92.7% 0.00in /  0mm 0 W/m2
00:34 57.5 °F /  14.2 °C 55.5 °F /  13.1 °C 30.03in /  1016.8hPa Calm     93% 0.00in /  0mm 0 W/m2
00:39 57.5 °F /  14.2 °C 55.5 °F /  13.1 °C 30.03in /  1016.8hPa Calm     93% 0.00in /  0mm 0 W/m2
00:44 57.4 °F /  14.1 °C 55.4 °F /  13 °C 30.02in /  1016.5hPa Calm     93% 0.00in /  0mm 0 W/m2
00:49 57.3 °F /  14.1 °C 55.3 °F /  12.9 °C 30.02in /  1016.5hPa Calm     93% 0.00in /  0mm 0 W/m2
00:54 57.1 °F /  13.9 °C 55.1 °F /  12.8 °C 30.02in /  1016.5hPa Calm     93% 0.00in /  0mm 0 W/m2
00:59 57 °F /  13.9 °C 54.9 °F /  12.7 °C 30.02in /  1016.5hPa Calm     92.9% 0.00in /  0mm 0 W/m2
01:04 56.9 °F /  13.8 °C 54.9 °F /  12.7 °C 30.02in /  1016.5hPa Calm     93% 0.00in /  0mm 0 W/m2
01:09 56.8 °F /  13.8 °C 54.8 °F /  12.7 °C 30.02in /  1016.5hPa Calm     93% 0.00in /  0mm 0 W/m2
01:14 56.8 °F /  13.8 °C 54.8 °F /  12.7 °C 30.02in /  1016.5hPa Calm     93% 0.00in /  0mm 0 W/m2
01:19 56.7 °F /  13.7 °C 54.7 °F /  12.6 °C 30.02in /  1016.5hPa Calm     93% 0.00in /  0mm 0 W/m2
01:24 56.6 °F /  13.7 °C 54.6 °F /  12.6 °C 30.02in /  1016.5hPa Calm     93% 0.00in /  0mm 0 W/m2
01:29 56.6 °F /  13.7 °C 54.6 °F /  12.6 °C 30.02in /  1016.5hPa Calm     93% 0.00in /  0mm 0 W/m2
01:34 56.5 °F /  13.6 °C 54.5 °F /  12.5 °C 30.02in /  1016.5hPa Calm     93% 0.00in /  0mm 0 W/m2
01:39 56.5 °F /  13.6 °C 54.6 °F /  12.6 °C 30.02in /  1016.5hPa Calm     93.4% 0.00in /  0mm 0 W/m2
01:44 56.5 °F /  13.6 °C 54.8 °F /  12.7 °C 30.01in /  1016.1hPa Calm     94% 0.00in /  0mm 0 W/m2
01:49 56.5 °F /  13.6 °C 54.8 °F /  12.7 °C 30.02in /  1016.5hPa Calm     94% 0.00in /  0mm 0 W/m2
01:54 56.4 °F /  13.6 °C 54.7 °F /  12.6 °C 30.01in /  1016.1hPa Calm     94% 0.00in /  0mm 0 W/m2
01:59 56.4 °F /  13.6 °C 54.7 °F /  12.6 °C 30.01in /  1016.1hPa Calm     94% 0.00in /  0mm 0 W/m2
02:04 56.3 °F /  13.5 °C 54.6 °F /  12.6 °C 30.01in /  1016.1hPa Calm     94% 0.00in /  0mm 0 W/m2
02:09 56.2 °F /  13.4 °C 54.5 °F /  12.5 °C 30.01in /  1016.1hPa Calm     94% 0.00in /  0mm 0 W/m2
02:14 56.1 °F /  13.4 °C 54.4 °F /  12.4 °C 30.01in /  1016.1hPa Calm     94% 0.00in /  0mm 0 W/m2
02:19 56 °F /  13.3 °C 54.3 °F /  12.4 °C 30.01in /  1016.1hPa Calm     94% 0.00in /  0mm 0 W/m2
02:24 55.9 °F /  13.3 °C 54.2 °F /  12.3 °C 30.01in /  1016.1hPa Calm     94% 0.00in /  0mm 0 W/m2
02:29 55.8 °F /  13.2 °C 54.1 °F /  12.3 °C 30.01in /  1016.1hPa Calm     94% 0.00in /  0mm 0 W/m2
02:34 55.7 °F /  13.2 °C 54 °F /  12.2 °C 30.01in /  1016.1hPa Calm     94% 0.00in /  0mm 0 W/m2
02:39 55.6 °F /  13.1 °C 53.9 °F /  12.2 °C 30.01in /  1016.1hPa Calm     94% 0.00in /  0mm 0 W/m2
02:44 55.5 °F /  13.1 °C 53.8 °F /  12.1 °C 30.01in /  1016.1hPa Calm     94% 0.00in /  0mm 0 W/m2
02:49 55.5 °F /  13.1 °C 53.8 °F /  12.1 °C 30.01in /  1016.1hPa Calm     94% 0.00in /  0mm 0 W/m2
02:54 55.4 °F /  13 °C 53.7 °F /  12.1 °C 30.01in /  1016.1hPa Calm     94% 0.00in /  0mm 0 W/m2
02:59 55.4 °F /  13 °C 53.7 °F /  12.1 °C 30.01in /  1016.1hPa Calm     94% 0.00in /  0mm 0 W/m2
03:04 55.3 °F /  12.9 °C 53.6 °F /  12 °C 30.01in /  1016.1hPa Calm     94% 0.00in /  0mm 0 W/m2
03:09 55.1 °F /  12.8 °C 53.4 °F /  11.9 °C 30.01in /  1016.1hPa Calm     94% 0.00in /  0mm 0 W/m2
03:14 55 °F /  12.8 °C 53.3 °F /  11.8 °C 30.01in /  1016.1hPa Calm     94% 0.00in /  0mm 0 W/m2
03:19 54.8 °F /  12.7 °C 53.1 °F /  11.7 °C 30.01in /  1016.1hPa Calm     94% 0.00in /  0mm 0 W/m2
03:24 54.8 °F /  12.7 °C 53.1 °F /  11.7 °C 30.01in /  1016.1hPa Calm     94% 0.00in /  0mm 0 W/m2
03:29 54.9 °F /  12.7 °C 53.5 °F /  11.9 °C 30.01in /  1016.1hPa Calm     94.8% 0.00in /  0mm 0 W/m2
03:34 55 °F /  12.8 °C 53.6 °F /  12 °C 30.01in /  1016.1hPa Calm     95% 0.00in /  0mm 0 W/m2
03:39 55 °F /  12.8 °C 53.6 °F /  12 °C 30.02in /  1016.5hPa Calm     95% 0.00in /  0mm 0 W/m2
03:44 55.1 °F /  12.8 °C 53.7 °F /  12.1 °C 30.02in /  1016.5hPa Calm     95% 0.00in /  0mm 0 W/m2
03:49 55.2 °F /  12.9 °C 53.8 °F /  12.1 °C 30.02in /  1016.5hPa Calm     95% 0.00in /  0mm 0 W/m2
03:54 55.3 °F /  12.9 °C 53.9 °F /  12.2 °C 30.01in /  1016.1hPa Calm     95% 0.00in /  0mm 0 W/m2
03:59 55.5 °F /  13.1 °C 54.1 °F /  12.3 °C 30.02in /  1016.5hPa Calm     95% 0.00in /  0mm 0 W/m2
04:00 55.7 °F /  13.2 °C 54.3 °F /  12.4 °C 30.02in /  1016.5hPa Calm     95% 0.00in /  0mm 0 W/m2
04:09 55.6 °F /  13.1 °C 54.2 °F /  12.3 °C 30.02in /  1016.5hPa Calm     95% 0.00in /  0mm 0 W/m2
04:14 55.4 °F /  13 °C 54 °F /  12.2 °C 30.02in /  1016.5hPa Calm     95% 0.00in /  0mm 0 W/m2
04:19 55.3 °F /  12.9 °C 53.9 °F /  12.2 °C 30.02in /  1016.5hPa Calm     95% 0.00in /  0mm 0 W/m2
04:24 55.1 °F /  12.8 °C 53.7 °F /  12.1 °C 30.02in /  1016.5hPa Calm     95% 0.00in /  0mm 0 W/m2
04:29 55 °F /  12.8 °C 53.6 °F /  12 °C 30.01in /  1016.1hPa Calm     95% 0.00in /  0mm 0 W/m2
04:34 55 °F /  12.8 °C 53.6 °F /  12 °C 30.01in /  1016.1hPa Calm     95% 0.00in /  0mm 0 W/m2
04:39 54.9 °F /  12.7 °C 53.5 °F /  11.9 °C 30.02in /  1016.5hPa Calm     95% 0.00in /  0mm 0 W/m2
04:44 54.9 °F /  12.7 °C 53.5 °F /  11.9 °C 30.02in /  1016.5hPa Calm     95% 0.00in /  0mm 0 W/m2
04:49 54.8 °F /  12.7 °C 53.4 °F /  11.9 °C 30.02in /  1016.5hPa Calm     95% 0.00in /  0mm 0 W/m2
04:54 54.8 °F /  12.7 °C 53.4 °F /  11.9 °C 30.02in /  1016.5hPa Calm     95% 0.00in /  0mm 0 W/m2
04:59 54.8 °F /  12.7 °C 53.4 °F /  11.9 °C 30.02in /  1016.5hPa Calm     95% 0.00in /  0mm 0 W/m2
05:04 54.7 °F /  12.6 °C 53.3 °F /  11.8 °C 30.02in /  1016.5hPa Calm     95% 0.00in /  0mm 0 W/m2
05:09 54.7 °F /  12.6 °C 53.3 °F /  11.8 °C 30.02in /  1016.5hPa Calm     95% 0.00in /  0mm 0 W/m2
05:14 54.6 °F /  12.6 °C 53.2 °F /  11.8 °C 30.02in /  1016.5hPa Calm     95% 0.00in /  0mm 0 W/m2
05:19 54.6 °F /  12.6 °C 53.2 °F /  11.8 °C 30.02in /  1016.5hPa Calm     95% 0.00in /  0mm 0 W/m2
05:24 54.6 °F /  12.6 °C 53.2 °F /  11.8 °C 30.02in /  1016.5hPa Calm     95% 0.00in /  0mm 0 W/m2
05:29 54.6 °F /  12.6 °C 53.4 °F /  11.9 °C 30.02in /  1016.5hPa Calm     95.5% 0.00in /  0mm 0 W/m2
05:34 54.7 °F /  12.6 °C 53.6 °F /  12 °C 30.02in /  1016.5hPa Calm     96% 0.00in /  0mm 0 W/m2
05:39 54.7 °F /  12.6 °C 53.6 °F /  12 °C 30.02in /  1016.5hPa Calm     96% 0.00in /  0mm 0 W/m2
05:44 54.7 °F /  12.6 °C 53.6 °F /  12 °C 30.02in /  1016.5hPa Calm     96% 0.00in /  0mm 0 W/m2
05:49 54.7 °F /  12.6 °C 53.6 °F /  12 °C 30.02in /  1016.5hPa Calm     96% 0.00in /  0mm 0 W/m2
05:54 54.6 °F /  12.6 °C 53.5 °F /  11.9 °C 30.02in /  1016.5hPa Calm     96% 0.00in /  0mm 0 W/m2
05:59 54.6 °F /  12.6 °C 53.5 °F /  11.9 °C 30.02in /  1016.5hPa Calm     96% 0.00in /  0mm 0 W/m2
06:04 54.6 °F /  12.6 °C 53.5 °F /  11.9 °C 30.02in /  1016.5hPa Calm     96% 0.00in /  0mm 0 W/m2
06:09 54.7 °F /  12.6 °C 53.6 °F /  12 °C 30.02in /  1016.5hPa Calm     96% 0.00in /  0mm 0 W/m2
06:14 54.8 °F /  12.7 °C 53.7 °F /  12.1 °C 30.02in /  1016.5hPa Calm     96% 0.00in /  0mm 0 W/m2
06:19 54.9 °F /  12.7 °C 53.8 °F /  12.1 °C 30.02in /  1016.5hPa Calm     96% 0.00in /  0mm 0 W/m2
06:24 55 °F /  12.8 °C 53.8 °F /  12.1 °C 30.02in /  1016.5hPa Calm     96% 0.00in /  0mm 0 W/m2
06:29 55 °F /  12.8 °C 53.9 °F /  12.2 °C 30.02in /  1016.5hPa Calm     96% 0.00in /  0mm 0 W/m2
06:34 55.2 °F /  12.9 °C 54 °F /  12.2 °C 30.02in /  1016.5hPa Calm     96% 0.00in /  0mm 0 W/m2
06:39 55.3 °F /  12.9 °C 54.3 °F /  12.4 °C 30.02in /  1016.5hPa Calm     96.2% 0.00in /  0mm 0 W/m2
06:44 55.5 °F /  13.1 °C 54.4 °F /  12.4 °C 30.02in /  1016.5hPa Calm     96.2% 0.00in /  0mm 0 W/m2
06:49 55.5 °F /  13.1 °C 54.4 °F /  12.4 °C 30.02in /  1016.5hPa Calm     96% 0.00in /  0mm 0 W/m2
06:54 55.6 °F /  13.1 °C 54.5 °F /  12.5 °C 30.02in /  1016.5hPa Calm     96% 0.00in /  0mm 0 W/m2
06:59 55.7 °F /  13.2 °C 54.6 °F /  12.6 °C 30.02in /  1016.5hPa Calm     96% 0.00in /  0mm 0 W/m2
07:04 55.8 °F /  13.2 °C 54.7 °F /  12.6 °C 30.02in /  1016.5hPa Calm     96% 0.00in /  0mm 0 W/m2
07:09 55.8 °F /  13.2 °C 54.7 °F /  12.6 °C 30.02in /  1016.5hPa Calm     96% 0.00in /  0mm 0 W/m2
07:14 56 °F /  13.3 °C 54.8 °F /  12.7 °C 30.02in /  1016.5hPa Calm     96% 0.00in /  0mm 5 W/m2
07:19 56.1 °F /  13.4 °C 54.9 °F /  12.7 °C 30.02in /  1016.5hPa Calm     96% 0.00in /  0mm 9 W/m2
07:24 56.2 °F /  13.4 °C 55.1 °F /  12.8 °C 30.02in /  1016.5hPa Calm     96% 0.00in /  0mm 11 W/m2
07:29 56.3 °F /  13.5 °C 55.2 °F /  12.9 °C 30.02in /  1016.5hPa Calm     96% 0.00in /  0mm 11 W/m2
07:34 56.4 °F /  13.6 °C 55.3 °F /  12.9 °C 30.02in /  1016.5hPa Calm     96% 0.00in /  0mm 14 W/m2
07:39 56.5 °F /  13.6 °C 55.4 °F /  13 °C 30.02in /  1016.5hPa Calm     96% 0.00in /  0mm 18 W/m2
07:44 56.6 °F /  13.7 °C 55.5 °F /  13.1 °C 30.02in /  1016.5hPa Calm     96% 0.00in /  0mm 23 W/m2
07:49 56.7 °F /  13.7 °C 55.5 °F /  13.1 °C 30.01in /  1016.1hPa Calm     96% 0.00in /  0mm 28 W/m2
07:54 56.7 °F /  13.7 °C 55.6 °F /  13.1 °C 30.02in /  1016.5hPa Calm     96% 0.00in /  0mm 37 W/m2
07:59 56.8 °F /  13.8 °C 55.7 °F /  13.2 °C 30.02in /  1016.5hPa Calm     96% 0.00in /  0mm 44 W/m2
08:00 56.8 °F /  13.8 °C 55.7 °F /  13.2 °C 30.01in /  1016.1hPa Calm     96% 0.00in /  0mm 44 W/m2
08:09 57 °F /  13.9 °C 55.9 °F /  13.3 °C 30.02in /  1016.5hPa Calm     96% 0.00in /  0mm 62 W/m2
08:14 57.1 °F /  13.9 °C 56 °F /  13.3 °C 30.02in /  1016.5hPa Calm     96% 0.00in /  0mm 74 W/m2
08:19 57.1 °F /  13.9 °C 56 °F /  13.3 °C 30.02in /  1016.5hPa Calm     96% 0.00in /  0mm 56 W/m2
08:24 57.1 °F /  13.9 °C 56 °F /  13.3 °C 30.02in /  1016.5hPa Calm     96% 0.00in /  0mm 51 W/m2
08:29 57.1 °F /  13.9 °C 56 °F /  13.3 °C 30.02in /  1016.5hPa Calm     96% 0.00in /  0mm 53 W/m2
08:34 57.1 °F /  13.9 °C 56 °F /  13.3 °C 30.02in /  1016.5hPa Calm     96% 0.00in /  0mm 54 W/m2
08:39 57.2 °F /  14 °C 56.1 °F /  13.4 °C 30.02in /  1016.5hPa Calm     96% 0.00in /  0mm 69 W/m2
08:44 57.3 °F /  14.1 °C 56.2 °F /  13.4 °C 30.02in /  1016.5hPa Calm     96.1% 0.00in /  0mm 79 W/m2
08:49 57.4 °F /  14.1 °C 56.5 °F /  13.6 °C 30.03in /  1016.8hPa Calm     96.9% 0.00in /  0mm 77 W/m2
08:54 57.5 °F /  14.2 °C 56.4 °F /  13.6 °C 30.03in /  1016.8hPa Calm   1mph /  1.6km/h 96.2% 0.00in /  0mm 86 W/m2
08:59 57.6 °F /  14.2 °C 56.6 °F /  13.7 °C 30.03in /  1016.8hPa Calm   2mph /  3.2km/h 96.5% 0.00in /  0mm 79 W/m2
09:04 57.7 °F /  14.3 °C 56.7 °F /  13.7 °C 30.03in /  1016.8hPa Calm   2mph /  3.2km/h 96.5% 0.00in /  0mm 69 W/m2
09:09 57.9 °F /  14.4 °C 56.7 °F /  13.7 °C 30.03in /  1016.8hPa Calm     96% 0.00in /  0mm 97 W/m2
09:14 57.9 °F /  14.4 °C 56.8 °F /  13.8 °C 30.03in /  1016.8hPa Calm     96% 0.00in /  0mm 111 W/m2
09:19 58 °F /  14.4 °C 56.9 °F /  13.8 °C 30.02in /  1016.5hPa Calm     96% 0.00in /  0mm 88 W/m2
09:24 58 °F /  14.4 °C 56.9 °F /  13.8 °C 30.02in /  1016.5hPa Calm     96.2% 0.00in /  0mm 148 W/m2
09:29 58 °F /  14.4 °C 56.9 °F /  13.8 °C 30.02in /  1016.5hPa Calm     96.2% 0.00in /  0mm 148 W/m2
09:34 58.2 °F /  14.6 °C 57.3 °F /  14.1 °C 30.02in /  1016.5hPa Calm     97% 0.00in /  0mm 142 W/m2
09:39 58.4 °F /  14.7 °C 57.5 °F /  14.2 °C 30.02in /  1016.5hPa Calm     97% 0.00in /  0mm 120 W/m2
09:44 58.5 °F /  14.7 °C 57.6 °F /  14.2 °C 30.02in /  1016.5hPa Calm     97% 0.00in /  0mm 155 W/m2
09:49 58.7 °F /  14.8 °C 57.8 °F /  14.3 °C 30.02in /  1016.5hPa Calm     97% 0.00in /  0mm 174 W/m2
09:54 58.8 °F /  14.9 °C 58 °F /  14.4 °C 30.02in /  1016.5hPa Calm     97% 0.00in /  0mm 178 W/m2
09:59 58.9 °F /  14.9 °C 58.1 °F /  14.5 °C 30.02in /  1016.5hPa Calm     97% 0.00in /  0mm 179 W/m2
10:04 59.2 °F /  15.1 °C 58.4 °F /  14.7 °C 30.02in /  1016.5hPa Calm     97% 0.00in /  0mm 151 W/m2
10:09 59.5 °F /  15.3 °C 58.7 °F /  14.8 °C 30.02in /  1016.5hPa Calm     97% 0.00in /  0mm 171 W/m2
10:14 59.8 °F /  15.4 °C 59 °F /  15 °C 30.02in /  1016.5hPa Calm     97% 0.00in /  0mm 193 W/m2
10:19 60.1 °F /  15.6 °C 59.3 °F /  15.2 °C 30.02in /  1016.5hPa Calm     97% 0.00in /  0mm 193 W/m2
10:24 60.3 °F /  15.7 °C 59.4 °F /  15.2 °C 30.02in /  1016.5hPa Calm     97% 0.00in /  0mm 250 W/m2
10:29 60.5 °F /  15.8 °C 59.6 °F /  15.3 °C 30.02in /  1016.5hPa Calm     97% 0.00in /  0mm 250 W/m2
10:34 60.6 °F /  15.9 °C 59.7 °F /  15.4 °C 30.01in /  1016.1hPa Calm     97% 0.00in /  0mm 292 W/m2
10:39 60.8 °F /  16 °C 60 °F /  15.6 °C 30.02in /  1016.5hPa Calm     97% 0.00in /  0mm 292 W/m2
10:44 61.1 °F /  16.2 °C 60.1 °F /  15.6 °C 30.02in /  1016.5hPa Calm     96.7% 0.00in /  0mm 225 W/m2
10:49 61.3 °F /  16.3 °C 60.4 °F /  15.8 °C 30.02in /  1016.5hPa Calm     96.8% 0.00in /  0mm 267 W/m2
10:54 61.9 °F /  16.6 °C 60.8 °F /  16 °C 30.01in /  1016.1hPa Calm     96.2% 0.00in /  0mm 559 W/m2
10:59 62.6 °F /  17 °C 61.5 °F /  16.4 °C 30.01in /  1016.1hPa SW 0.1mph /  0.2km/h 2mph /  3.2km/h 96.2% 0.00in /  0mm 624 W/m2
11:04 63.5 °F /  17.5 °C 62.3 °F /  16.8 °C 30.01in /  1016.1hPa Calm   2mph /  3.2km/h 96% 0.00in /  0mm 608 W/m2
11:09 64.4 °F /  18 °C 62.8 °F /  17.1 °C 30.01in /  1016.1hPa SSW 0.1mph /  0.2km/h 2mph /  3.2km/h 94.5% 0.00in /  0mm 608 W/m2
11:14 64.9 °F /  18.3 °C 62.4 °F /  16.9 °C 30.01in /  1016.1hPa Calm   2mph /  3.2km/h 91.6% 0.00in /  0mm 192 W/m2
11:19 65.1 °F /  18.4 °C 61.9 °F /  16.6 °C 30.01in /  1016.1hPa Calm   2mph /  3.2km/h 89.6% 0.00in /  0mm 135 W/m2
11:24 65.2 °F /  18.4 °C 61.9 °F /  16.6 °C 30.01in /  1016.1hPa Calm   2mph /  3.2km/h 89% 0.00in /  0mm 229 W/m2
11:29 65.3 °F /  18.5 °C 61.8 °F /  16.6 °C 30.01in /  1016.1hPa Calm   2mph /  3.2km/h 88.6% 0.00in /  0mm 243 W/m2
11:34 65.4 °F /  18.6 °C 61.7 °F /  16.5 °C 30.01in /  1016.1hPa Calm   2mph /  3.2km/h 88% 0.00in /  0mm 243 W/m2
11:39 65.7 °F /  18.7 °C 62 °F /  16.7 °C 30.00in /  1015.8hPa Calm     88% 0.00in /  0mm 221 W/m2
11:44 65.9 °F /  18.8 °C 62.1 °F /  16.7 °C 30.00in /  1015.8hPa Calm     87.5% 0.00in /  0mm 239 W/m2
11:49 66.2 °F /  19 °C 62.2 °F /  16.8 °C 30.00in /  1015.8hPa Calm     87% 0.00in /  0mm 206 W/m2
11:54 66.5 °F /  19.2 °C 62.3 °F /  16.8 °C 30.00in /  1015.8hPa Calm     86.4% 0.00in /  0mm 230 W/m2
11:59 66.6 °F /  19.2 °C 62.3 °F /  16.8 °C 30.00in /  1015.8hPa Calm     86% 0.00in /  0mm 236 W/m2
12:00 66.8 °F /  19.3 °C 62.5 °F /  16.9 °C 30.00in /  1015.8hPa Calm     86% 0.00in /  0mm 209 W/m2
12:09 67.2 °F /  19.6 °C 62.9 °F /  17.2 °C 30.00in /  1015.8hPa Calm     86% 0.00in /  0mm 209 W/m2
12:14 67.3 °F /  19.6 °C 62.5 °F /  16.9 °C 30.00in /  1015.8hPa Calm     84.6% 0.00in /  0mm 199 W/m2
12:19 67.5 °F /  19.7 °C 62.6 °F /  17 °C 29.99in /  1015.5hPa Calm   1mph /  1.6km/h 84.3% 0.00in /  0mm 234 W/m2
12:24 67.8 °F /  19.9 °C 62.9 °F /  17.2 °C 29.99in /  1015.5hPa SSW 0.2mph /  0.3km/h 4mph /  6.4km/h 84.3% 0.00in /  0mm 325 W/m2
12:29 68.3 °F /  20.2 °C 63 °F /  17.2 °C 29.99in /  1015.5hPa SW 0.1mph /  0.2km/h 4mph /  6.4km/h 83.1% 0.00in /  0mm 371 W/m2
12:34 68.9 °F /  20.5 °C 62.9 °F /  17.2 °C 29.98in /  1015.1hPa SW 0.2mph /  0.3km/h 4mph /  6.4km/h 81.1% 0.00in /  0mm 253 W/m2
12:39 69.3 °F /  20.7 °C 62.7 °F /  17.1 °C 29.98in /  1015.1hPa Calm   3mph /  4.8km/h 79.5% 0.00in /  0mm 239 W/m2
12:44 69.6 °F /  20.9 °C 62.8 °F /  17.1 °C 29.98in /  1015.1hPa WSW 0.5mph /  0.8km/h 6mph /  9.7km/h 79% 0.00in /  0mm 251 W/m2
12:49 69.8 °F /  21 °C 63 °F /  17.2 °C 29.98in /  1015.1hPa WSW 0.5mph /  0.8km/h 6mph /  9.7km/h 79% 0.00in /  0mm 267 W/m2
12:54 70.2 °F /  21.2 °C 63.2 °F /  17.3 °C 29.98in /  1015.1hPa Calm   6mph /  9.7km/h 78.5% 0.00in /  0mm 281 W/m2
12:59 70.5 °F /  21.4 °C 63.6 °F /  17.6 °C 29.97in /  1014.8hPa West 0.1mph /  0.2km/h 6mph /  9.7km/h 78.8% 0.00in /  0mm 262 W/m2
13:04 70.9 °F /  21.6 °C 63.6 °F /  17.6 °C 29.97in /  1014.8hPa West 0.2mph /  0.3km/h 6mph /  9.7km/h 77.6% 0.00in /  0mm 236 W/m2
13:09 71.2 °F /  21.8 °C 63.4 °F /  17.4 °C 29.97in /  1014.8hPa Calm   4mph /  6.4km/h 76.5% 0.00in /  0mm 229 W/m2
13:14 71.2 °F /  21.8 °C 63.2 °F /  17.3 °C 29.97in /  1014.8hPa Calm   4mph /  6.4km/h 75.8% 0.00in /  0mm 262 W/m2
13:19 71.2 °F /  21.8 °C 63.1 °F /  17.3 °C 29.96in /  1014.4hPa West 0.4mph /  0.6km/h 5mph /  8km/h 75.5% 0.00in /  0mm 297 W/m2
13:24 71.3 °F /  21.8 °C 63.3 °F /  17.4 °C 29.96in /  1014.4hPa West 0.9mph /  1.4km/h 5mph /  8km/h 75.8% 0.00in /  0mm 220 W/m2
13:29 71.4 °F /  21.9 °C 63.4 °F /  17.4 °C 29.96in /  1014.4hPa West 0.2mph /  0.3km/h 5mph /  8km/h 75.7% 0.00in /  0mm 223 W/m2
13:34 71.5 °F /  21.9 °C 63.2 °F /  17.3 °C 29.95in /  1014.1hPa West 1mph /  1.6km/h 7mph /  11.3km/h 75% 0.00in /  0mm 209 W/m2
13:39 71.4 °F /  21.9 °C 63.1 °F /  17.3 °C 29.95in /  1014.1hPa Calm   7mph /  11.3km/h 75% 0.00in /  0mm 221 W/m2
13:44 71.4 °F /  21.9 °C 63.4 °F /  17.4 °C 29.95in /  1014.1hPa West 0.2mph /  0.3km/h 7mph /  11.3km/h 75.7% 0.00in /  0mm 237 W/m2
13:49 71.5 °F /  21.9 °C 63.5 °F /  17.5 °C 29.95in /  1014.1hPa West 0.1mph /  0.2km/h 7mph /  11.3km/h 75.7% 0.00in /  0mm 218 W/m2
13:54 71.6 °F /  22 °C 63.3 °F /  17.4 °C 29.95in /  1014.1hPa WSW 0.7mph /  1.1km/h 7mph /  11.3km/h 75% 0.00in /  0mm 171 W/m2
13:59 71.6 °F /  22 °C 63.2 °F /  17.3 °C 29.95in /  1014.1hPa Calm   7mph /  11.3km/h 74.7% 0.00in /  0mm 206 W/m2
14:04 71.7 °F /  22.1 °C 63.4 °F /  17.4 °C 29.95in /  1014.1hPa Calm   7mph /  11.3km/h 75% 0.00in /  0mm 183 W/m2
14:09 71.7 °F /  22.1 °C 63.4 °F /  17.4 °C 29.94in /  1013.8hPa WSW 0.1mph /  0.2km/h 4mph /  6.4km/h 75% 0.00in /  0mm 211 W/m2
14:14 71.7 °F /  22.1 °C 63.2 °F /  17.3 °C 29.94in /  1013.8hPa WSW 0.3mph /  0.5km/h 5mph /  8km/h 74.6% 0.00in /  0mm 209 W/m2
14:19 71.7 °F /  22.1 °C 63.3 °F /  17.4 °C 29.94in /  1013.8hPa WSW 0.1mph /  0.2km/h 5mph /  8km/h 74.9% 0.00in /  0mm 209 W/m2
14:24 71.7 °F /  22.1 °C 63.4 °F /  17.4 °C 29.94in /  1013.8hPa West 0.4mph /  0.6km/h 6mph /  9.7km/h 75.2% 0.00in /  0mm 193 W/m2
14:29 71.6 °F /  22 °C 63.2 °F /  17.3 °C 29.94in /  1013.8hPa West 1.3mph /  2.1km/h 6mph /  9.7km/h 74.8% 0.00in /  0mm 209 W/m2
14:34 71.5 °F /  21.9 °C 63.2 °F /  17.3 °C 29.94in /  1013.8hPa West 0.4mph /  0.6km/h 6mph /  9.7km/h 75.1% 0.00in /  0mm 197 W/m2
14:39 71.4 °F /  21.9 °C 63.3 °F /  17.4 °C 29.94in /  1013.8hPa West 0.5mph /  0.8km/h 5mph /  8km/h 75.7% 0.00in /  0mm 171 W/m2
14:44 71.2 °F /  21.8 °C 63.2 °F /  17.3 °C 29.94in /  1013.8hPa West 1.3mph /  2.1km/h 10mph /  16.1km/h 75.7% 0.00in /  0mm 155 W/m2
14:49 71.1 °F /  21.7 °C 63.4 °F /  17.4 °C 29.94in /  1013.8hPa West 0.3mph /  0.5km/h 10mph /  16.1km/h 76.5% 0.00in /  0mm 176 W/m2
14:54 71 °F /  21.7 °C 63.1 °F /  17.3 °C 29.94in /  1013.8hPa West 1.5mph /  2.4km/h 10mph /  16.1km/h 76.2% 0.00in /  0mm 181 W/m2
14:59 70.9 °F /  21.6 °C 63.1 °F /  17.3 °C 29.94in /  1013.8hPa West 1.7mph /  2.7km/h 10mph /  16.1km/h 76.5% 0.00in /  0mm 165 W/m2
15:04 70.8 °F /  21.6 °C 63.2 °F /  17.3 °C 29.94in /  1013.8hPa West 1.6mph /  2.6km/h 10mph /  16.1km/h 76.8% 0.00in /  0mm 137 W/m2
15:09 70.6 °F /  21.4 °C 62.9 °F /  17.2 °C 29.94in /  1013.8hPa West 0.4mph /  0.6km/h 7mph /  11.3km/h 76.6% 0.00in /  0mm 132 W/m2
15:14 70.5 °F /  21.4 °C 63 °F /  17.2 °C 29.94in /  1013.8hPa West 0.4mph /  0.6km/h 7mph /  11.3km/h 77% 0.00in /  0mm 109 W/m2
15:19 70.4 °F /  21.3 °C 63.1 °F /  17.3 °C 29.94in /  1013.8hPa West 0.8mph /  1.3km/h 7mph /  11.3km/h 77.6% 0.00in /  0mm 98 W/m2
15:24 70.3 °F /  21.3 °C 63.1 °F /  17.3 °C 29.94in /  1013.8hPa West 0.8mph /  1.3km/h 7mph /  11.3km/h 78% 0.00in /  0mm 93 W/m2
15:29 70.1 °F /  21.2 °C 62.9 °F /  17.2 °C 29.94in /  1013.8hPa West 0.7mph /  1.1km/h 7mph /  11.3km/h 78% 0.00in /  0mm 95 W/m2
15:34 69.9 °F /  21.1 °C 62.8 °F /  17.1 °C 29.94in /  1013.8hPa West 1.4mph /  2.3km/h 7mph /  11.3km/h 78% 0.00in /  0mm 86 W/m2
15:39 69.8 °F /  21 °C 62.7 °F /  17.1 °C 29.94in /  1013.8hPa West 0.4mph /  0.6km/h 6mph /  9.7km/h 78.1% 0.00in /  0mm 76 W/m2
15:44 69.7 °F /  20.9 °C 62.9 °F /  17.2 °C 29.94in /  1013.8hPa West 0.3mph /  0.5km/h 6mph /  9.7km/h 79% 0.00in /  0mm 70 W/m2
15:49 69.5 °F /  20.8 °C 62.7 °F /  17.1 °C 29.94in /  1013.8hPa West 0.1mph /  0.2km/h 6mph /  9.7km/h 78.8% 0.00in /  0mm 74 W/m2
15:54 69.4 °F /  20.8 °C 62.6 °F /  17 °C 29.94in /  1013.8hPa West 0.3mph /  0.5km/h 6mph /  9.7km/h 79% 0.00in /  0mm 79 W/m2
15:59 69.4 °F /  20.8 °C 62.6 °F /  17 °C 29.94in /  1013.8hPa West 0.5mph /  0.8km/h 6mph /  9.7km/h 79.2% 0.00in /  0mm 81 W/m2
16:00 69.3 °F /  20.7 °C 62.5 °F /  16.9 °C 29.94in /  1013.8hPa Calm   6mph /  9.7km/h 79% 0.00in /  0mm 74 W/m2
16:09 69.2 °F /  20.7 °C 62.5 °F /  16.9 °C 29.94in /  1013.8hPa Calm   1mph /  1.6km/h 79.4% 0.00in /  0mm 72 W/m2
16:14 69.2 °F /  20.7 °C 62.8 °F /  17.1 °C 29.94in /  1013.8hPa Calm   1mph /  1.6km/h 80% 0.00in /  0mm 72 W/m2
16:19 69.1 °F /  20.6 °C 62.8 °F /  17.1 °C 29.94in /  1013.8hPa Calm   1mph /  1.6km/h 80.2% 0.00in /  0mm 58 W/m2
16:24 69.1 °F /  20.6 °C 62.7 °F /  17.1 °C 29.94in /  1013.8hPa West 1.2mph /  1.9km/h 5mph /  8km/h 80.2% 0.00in /  0mm 46 W/m2
16:29 68.9 °F /  20.5 °C 62.5 °F /  16.9 °C 29.94in /  1013.8hPa West 0.3mph /  0.5km/h 5mph /  8km/h 80.1% 0.00in /  0mm 53 W/m2
16:34 68.8 °F /  20.4 °C 62.7 °F /  17.1 °C 29.94in /  1013.8hPa West 0.2mph /  0.3km/h 5mph /  8km/h 81% 0.00in /  0mm 56 W/m2
16:39 68.8 °F /  20.4 °C 62.7 °F /  17.1 °C 29.94in /  1013.8hPa Calm   5mph /  8km/h 81% 0.00in /  0mm 56 W/m2
16:44 68.7 °F /  20.4 °C 62.7 °F /  17.1 °C 29.94in /  1013.8hPa Calm   5mph /  8km/h 81% 0.00in /  0mm 54 W/m2
16:49 68.7 °F /  20.4 °C 62.6 °F /  17 °C 29.94in /  1013.8hPa Calm   5mph /  8km/h 81% 0.00in /  0mm 53 W/m2
16:54 68.7 °F /  20.4 °C 62.7 °F /  17.1 °C 29.94in /  1013.8hPa Calm   5mph /  8km/h 81.2% 0.00in /  0mm 42 W/m2
16:59 68.6 °F /  20.3 °C 62.6 °F /  17 °C 29.95in /  1014.1hPa Calm   5mph /  8km/h 81% 0.00in /  0mm 33 W/m2
17:04 68.6 °F /  20.3 °C 62.5 °F /  16.9 °C 29.94in /  1013.8hPa Calm   5mph /  8km/h 81% 0.00in /  0mm 33 W/m2
17:09 68.5 °F /  20.3 °C 62.5 °F /  16.9 °C 29.94in /  1013.8hPa Calm     81% 0.00in /  0mm 33 W/m2
17:14 68.4 °F /  20.2 °C 62.4 °F /  16.9 °C 29.94in /  1013.8hPa Calm     81% 0.00in /  0mm 33 W/m2
17:19 68.4 °F /  20.2 °C 62.5 °F /  16.9 °C 29.94in /  1013.8hPa Calm     81.3% 0.00in /  0mm 28 W/m2
17:24 68.4 °F /  20.2 °C 62.7 °F /  17.1 °C 29.94in /  1013.8hPa Calm     82% 0.00in /  0mm 23 W/m2
17:29 68.3 °F /  20.2 °C 62.6 °F /  17 °C 29.94in /  1013.8hPa Calm     82% 0.00in /  0mm 19 W/m2
17:34 68.2 °F /  20.1 °C 62.5 °F /  16.9 °C 29.94in /  1013.8hPa Calm     82% 0.00in /  0mm 14 W/m2
17:39 68.1 °F /  20.1 °C 62.4 °F /  16.9 °C 29.94in /  1013.8hPa Calm     82% 0.00in /  0mm 14 W/m2
17:44 68.1 °F /  20.1 °C 62.4 °F /  16.9 °C 29.94in /  1013.8hPa Calm     82% 0.00in /  0mm 12 W/m2
17:49 68 °F /  20 °C 62.4 °F /  16.9 °C 29.94in /  1013.8hPa Calm     82.4% 0.00in /  0mm 7 W/m2
17:54 67.9 °F /  19.9 °C 62.2 °F /  16.8 °C 29.94in /  1013.8hPa Calm     82% 0.00in /  0mm 5 W/m2
17:58 67.8 °F /  19.9 °C 62.1 °F /  16.7 °C 29.94in /  1013.8hPa Calm     82% 0.00in /  0mm 5 W/m2
18:04 67.7 °F /  19.8 °C 62.4 °F /  16.9 °C 29.94in /  1013.8hPa Calm     83% 0.00in /  0mm 0 W/m2
18:09 67.7 °F /  19.8 °C 62.3 °F /  16.8 °C 29.94in /  1013.8hPa Calm     83% 0.00in /  0mm 0 W/m2
18:14 67.6 °F /  19.8 °C 62.3 °F /  16.8 °C 29.94in /  1013.8hPa Calm     83% 0.00in /  0mm 0 W/m2
18:19 67.5 °F /  19.7 °C 62.2 °F /  16.8 °C 29.94in /  1013.8hPa Calm     83% 0.00in /  0mm 0 W/m2
18:24 67.4 °F /  19.7 °C 62.1 °F /  16.7 °C 29.94in /  1013.8hPa Calm     83% 0.00in /  0mm 0 W/m2
18:29 67.4 °F /  19.7 °C 62.1 °F /  16.7 °C 29.94in /  1013.8hPa Calm     83.1% 0.00in /  0mm 0 W/m2
18:34 67.3 °F /  19.6 °C 62.1 °F /  16.7 °C 29.94in /  1013.8hPa Calm     83.3% 0.00in /  0mm 0 W/m2
18:39 67.2 °F /  19.6 °C 62.2 °F /  16.8 °C 29.94in /  1013.8hPa Calm     84% 0.00in /  0mm 0 W/m2
18:44 67.1 °F /  19.5 °C 62.1 °F /  16.7 °C 29.94in /  1013.8hPa Calm     84% 0.00in /  0mm 0 W/m2
18:49 67.1 °F /  19.5 °C 62.1 °F /  16.7 °C 29.94in /  1013.8hPa Calm     84% 0.00in /  0mm 0 W/m2
18:54 67 °F /  19.4 °C 62 °F /  16.7 °C 29.94in /  1013.8hPa Calm     84% 0.00in /  0mm 0 W/m2
18:59 66.9 °F /  19.4 °C 62.1 °F /  16.7 °C 29.94in /  1013.8hPa Calm     84.7% 0.00in /  0mm 0 W/m2
19:04 66.8 °F /  19.3 °C 62.2 °F /  16.8 °C 29.94in /  1013.8hPa Calm     85% 0.00in /  0mm 0 W/m2
19:09 66.8 °F /  19.3 °C 62.2 °F /  16.8 °C 29.94in /  1013.8hPa Calm     85% 0.00in /  0mm 0 W/m2
19:14 66.8 °F /  19.3 °C 62.1 °F /  16.7 °C 29.94in /  1013.8hPa Calm     85% 0.00in /  0mm 0 W/m2
19:19 66.7 °F /  19.3 °C 62.1 °F /  16.7 °C 29.94in /  1013.8hPa Calm     85% 0.00in /  0mm 0 W/m2
19:24 66.7 °F /  19.3 °C 62 °F /  16.7 °C 29.94in /  1013.8hPa Calm     85% 0.00in /  0mm 0 W/m2
19:29 66.6 °F /  19.2 °C 62.2 °F /  16.8 °C 29.95in /  1014.1hPa Calm     85.8% 0.00in /  0mm 0 W/m2
19:34 66.6 °F /  19.2 °C 62.3 °F /  16.8 °C 29.95in /  1014.1hPa Calm     86% 0.00in /  0mm 0 W/m2
19:39 66.5 °F /  19.2 °C 62.2 °F /  16.8 °C 29.95in /  1014.1hPa Calm     86% 0.00in /  0mm 0 W/m2
19:44 66.5 °F /  19.2 °C 62.2 °F /  16.8 °C 29.95in /  1014.1hPa Calm     86% 0.00in /  0mm 0 W/m2
19:49 66.4 °F /  19.1 °C 62.1 °F /  16.7 °C 29.95in /  1014.1hPa Calm     86% 0.00in /  0mm 0 W/m2
19:54 66.4 °F /  19.1 °C 62.1 °F /  16.7 °C 29.94in /  1013.8hPa Calm     86% 0.00in /  0mm 0 W/m2
19:59 66.3 °F /  19.1 °C 62 °F /  16.7 °C 29.94in /  1013.8hPa Calm     86% 0.00in /  0mm 0 W/m2
20:00 66.3 °F /  19.1 °C 62 °F /  16.7 °C 29.94in /  1013.8hPa Calm     86% 0.00in /  0mm 0 W/m2
20:09 66.1 °F /  18.9 °C 61.8 °F /  16.6 °C 29.94in /  1013.8hPa Calm     86% 0.00in /  0mm 0 W/m2
20:14 66 °F /  18.9 °C 61.7 °F /  16.5 °C 29.94in /  1013.8hPa Calm     86% 0.00in /  0mm 0 W/m2
20:19 65.8 °F /  18.8 °C 61.5 °F /  16.4 °C 29.94in /  1013.8hPa Calm     86% 0.00in /  0mm 0 W/m2
20:24 65.7 °F /  18.7 °C 61.4 °F /  16.3 °C 29.94in /  1013.8hPa Calm     86% 0.00in /  0mm 0 W/m2
20:29 65.6 °F /  18.7 °C 61.4 °F /  16.3 °C 29.94in /  1013.8hPa Calm     86.3% 0.00in /  0mm 0 W/m2
20:34 65.4 °F /  18.6 °C 61.3 °F /  16.3 °C 29.94in /  1013.8hPa Calm   1mph /  1.6km/h 86.7% 0.00in /  0mm 0 W/m2
20:39 65.3 °F /  18.5 °C 61.3 °F /  16.3 °C 29.94in /  1013.8hPa Calm   1mph /  1.6km/h 87% 0.00in /  0mm 0 W/m2
20:44 65.1 °F /  18.4 °C 61.2 °F /  16.2 °C 29.94in /  1013.8hPa Calm   1mph /  1.6km/h 87% 0.00in /  0mm 0 W/m2
20:49 65 °F /  18.3 °C 61.3 °F /  16.3 °C 29.94in /  1013.8hPa Calm   1mph /  1.6km/h 87.8% 0.00in /  0mm 0 W/m2
20:54 64.9 °F /  18.3 °C 61.3 °F /  16.3 °C 29.93in /  1013.4hPa Calm   1mph /  1.6km/h 88% 0.00in /  0mm 0 W/m2
20:59 64.8 °F /  18.2 °C 61.2 °F /  16.2 °C 29.93in /  1013.4hPa Calm   1mph /  1.6km/h 88% 0.00in /  0mm 0 W/m2
21:04 64.7 °F /  18.2 °C 61.1 °F /  16.2 °C 29.94in /  1013.8hPa Calm   1mph /  1.6km/h 88% 0.00in /  0mm 0 W/m2
21:09 64.6 °F /  18.1 °C 61.1 °F /  16.2 °C 29.93in /  1013.4hPa Calm     88.3% 0.00in /  0mm 0 W/m2
21:14 64.5 °F /  18.1 °C 61.2 °F /  16.2 °C 29.93in /  1013.4hPa Calm     89% 0.00in /  0mm 0 W/m2
21:19 64.3 °F /  17.9 °C 60.8 °F /  16 °C 29.93in /  1013.4hPa Calm     88.4% 0.00in /  0mm 0 W/m2
21:24 64.2 °F /  17.9 °C 60.8 °F /  16 °C 29.93in /  1013.4hPa Calm     88.8% 0.00in /  0mm 0 W/m2
21:29 64 °F /  17.8 °C 60.7 °F /  15.9 °C 29.93in /  1013.4hPa Calm     89% 0.00in /  0mm 0 W/m2
21:34 63.9 °F /  17.7 °C 60.6 °F /  15.9 °C 29.94in /  1013.8hPa Calm     89% 0.00in /  0mm 0 W/m2
21:39 63.8 °F /  17.7 °C 60.5 °F /  15.8 °C 29.93in /  1013.4hPa Calm     89% 0.00in /  0mm 0 W/m2
21:44 63.7 °F /  17.6 °C 60.6 °F /  15.9 °C 29.93in /  1013.4hPa Calm     89.7% 0.00in /  0mm 0 W/m2
21:49 63.6 °F /  17.6 °C 60.6 °F /  15.9 °C 29.93in /  1013.4hPa Calm     90% 0.00in /  0mm 0 W/m2
21:54 63.5 °F /  17.5 °C 60.5 °F /  15.8 °C 29.93in /  1013.4hPa Calm     90% 0.00in /  0mm 0 W/m2
21:59 63.4 °F /  17.4 °C 60.4 °F /  15.8 °C 29.93in /  1013.4hPa Calm     90.2% 0.00in /  0mm 0 W/m2
22:04 63.2 °F /  17.3 °C 60.3 °F /  15.7 °C 29.93in /  1013.4hPa Calm     90.2% 0.00in /  0mm 0 W/m2
22:09 63.2 °F /  17.3 °C 60.4 °F /  15.8 °C 29.93in /  1013.4hPa Calm     90.7% 0.00in /  0mm 0 W/m2
22:14 63.1 °F /  17.3 °C 60.4 °F /  15.8 °C 29.93in /  1013.4hPa Calm     91% 0.00in /  0mm 0 W/m2
22:19 63 °F /  17.2 °C 60.4 °F /  15.8 °C 29.93in /  1013.4hPa Calm     91% 0.00in /  0mm 0 W/m2
22:24 62.9 °F /  17.2 °C 60.3 °F /  15.7 °C 29.92in /  1013.1hPa Calm     91% 0.00in /  0mm 0 W/m2
22:29 62.8 °F /  17.1 °C 60.1 °F /  15.6 °C 29.92in /  1013.1hPa Calm     91% 0.00in /  0mm 0 W/m2
22:34 62.7 °F /  17.1 °C 60 °F /  15.6 °C 29.92in /  1013.1hPa Calm     91% 0.00in /  0mm 0 W/m2
22:39 62.5 °F /  16.9 °C 59.9 °F /  15.5 °C 29.92in /  1013.1hPa Calm     91% 0.00in /  0mm 0 W/m2
22:44 62.4 °F /  16.9 °C 59.9 °F /  15.5 °C 29.92in /  1013.1hPa Calm     91.4% 0.00in /  0mm 0 W/m2
22:49 62.3 °F /  16.8 °C 60 °F /  15.6 °C 29.93in /  1013.4hPa Calm     92% 0.00in /  0mm 0 W/m2
22:54 62.2 °F /  16.8 °C 59.9 °F /  15.5 °C 29.92in /  1013.1hPa Calm     92% 0.00in /  0mm 0 W/m2
22:59 62.1 °F /  16.7 °C 59.8 °F /  15.4 °C 29.92in /  1013.1hPa Calm     92% 0.00in /  0mm 0 W/m2
23:04 62 °F /  16.7 °C 59.7 °F /  15.4 °C 29.92in /  1013.1hPa Calm     92% 0.00in /  0mm 0 W/m2
23:09 61.9 °F /  16.6 °C 59.6 °F /  15.3 °C 29.92in /  1013.1hPa Calm     92% 0.00in /  0mm 0 W/m2
23:14 61.8 °F /  16.6 °C 59.5 °F /  15.3 °C 29.92in /  1013.1hPa Calm     92% 0.00in /  0mm 0 W/m2
23:19 61.8 °F /  16.6 °C 59.7 °F /  15.4 °C 29.92in /  1013.1hPa Calm     92.9% 0.00in /  0mm 0 W/m2
23:24 61.7 °F /  16.5 °C 59.7 °F /  15.4 °C 29.92in /  1013.1hPa Calm     93% 0.00in /  0mm 0 W/m2
23:29 61.7 °F /  16.5 °C 59.6 °F /  15.3 °C 29.91in /  1012.8hPa Calm     93% 0.00in /  0mm 0 W/m2
23:34 61.6 °F /  16.4 °C 59.6 °F /  15.3 °C 29.91in /  1012.8hPa Calm     93% 0.00in /  0mm 0 W/m2
23:39 61.6 °F /  16.4 °C 59.6 °F /  15.3 °C 29.91in /  1012.8hPa Calm     93% 0.00in /  0mm 0 W/m2
23:44 61.5 °F /  16.4 °C 59.5 °F /  15.3 °C 29.91in /  1012.8hPa Calm     93% 0.00in /  0mm 0 W/m2
23:49 61.5 °F /  16.4 °C 59.5 °F /  15.3 °C 29.91in /  1012.8hPa Calm     93% 0.00in /  0mm 0 W/m2
23:54 61.5 °F /  16.4 °C 59.4 °F /  15.2 °C 29.91in /  1012.8hPa Calm     93% 0.00in /  0mm 0 W/m2
23:59 61.4 °F /  16.3 °C 59.4 °F /  15.2 °C 29.91in /  1012.8hPa Calm     93% 0.00in /  0mm 0 W/m2
Hartford County Weather
Compliments of Weather Underground - 4 mb